Gatlinburg, TN

10:54 PM EST on January 23, 2017 (GMT -0500)
UT Field Station | | Change Station
Active Advisory: Wind Advisory

Elev 1586 ft 35.74 °N, 83.42 °W | Updated 7 seconds ago

Overcast
Overcast
48.3 °F
Feels Like 48 °F
N
0.0
Wind Variable Wind from West
Gusts 10.0 mph

Today
High -- | Low -- °F
--% Chance of Precip.
Yesterday
High -- | Low -- °F
Precip. -- in
Pressure 29.70 in
Visibility 10.0 miles
Clouds Scattered Clouds 1100 ft
Overcast 3900 ft
Windchill 48 °F
Dew Point 45 °F
Humidity 88%
Rainfall 0.41 in
Snow Depth Not available.
7:39 AM 5:52 PM
Waning Crescent, 14% visible
METAR KTYS 240253Z 26012KT 10SM SCT011 OVC039 08/06 A2970 RMK AO2 RAE06 SLP056 P0000 60000 T00830056 51033
Pressure 29.70 in
Visibility 10.0 miles
Clouds Scattered Clouds 1100 ft
Overcast 3900 ft
Windchill 48 °F
Dew Point 45 °F
Humidity 88%
Rainfall 0.41 in
Snow Depth Not available.
7:39 AM 5:52 PM
Waning Crescent, 14% visible
METAR KTYS 240253Z 26012KT 10SM SCT011 OVC039 08/06 A2970 RMK AO2 RAE06 SLP056 P0000 60000 T00830056 51033

Get Your Daily Forecast Email!

Thanks for signing up!

Be on the lookout for a verification email in your inbox.

You'll start receiving the daily forecast at 8 AM.

×

10-Day Weather Forecast

Almanac

Astronomy

Jan. 23, 2017 Rise Set
Actual Time
Civil Twilight
Nautical Twilight
Astronomical Twilight
Moon
Length of Visible Light
Length of Day
Tomorrow will be .
, % of the Moon is Illuminated

Today's Extremes

State Highs State Lows

Community

WunderPhotos

Upload Photos

1,962,540 photos uploaded!

WunderBlog® & News

Nearby

Air Quality

  Air Quality AQ Index Pollutant
Not available.

Snow Depth

Station Depth Elevation

Earthquake Activity

City Distance Mag. Time & Date
Minimum magnitude displayed is 2.5.

Coastal Water Temperatures

Place Temperature

Stations

Nearby Weather Stations

Station Location Temp. Windchill Dew Point Humidity Wind Precip. Elev Updated Type
                   

Watches & Warnings

Wind Advisory
Issued: 8:46 PM EST Jan. 23, 2017 – National Weather Service

... Wind Advisory remains in effect until 11 am EST Tuesday...

* event... sustained winds of 15 to 30 mph... with gusts of 40 to
50 mph.

* Timing... tonight through Tuesday morning.

* Impacts... isolated downed trees and power lines will be
possible... especially with the recent rainfall
accumulations... and unsecured outdoor objects may be blown
over. Driving may be difficult for high profile vehicles.

Precautionary/preparedness actions...

A Wind Advisory means that winds of 26 to 39 mph and/or gusts of
40 to 57 mph are expected or occurring. Winds this strong can
make driving difficult... especially for high profile vehicles.
Use extra caution.